createdAt,value
2023-05-24T00:00:31.157Z,8.93
2023-05-24T00:03:00.963Z,8.95
2023-05-24T00:05:33.899Z,7.90
2023-05-24T00:08:03.598Z,9.02
2023-05-24T00:10:33.340Z,9.38
2023-05-24T00:13:03.027Z,9.75
2023-05-24T00:15:32.970Z,9.65
2023-05-24T00:18:02.687Z,8.43
2023-05-24T00:20:35.214Z,10.35
2023-05-24T00:23:05.073Z,9.75
2023-05-24T00:25:34.837Z,7.80
2023-05-24T00:28:04.569Z,8.15
2023-05-24T00:30:34.294Z,8.43
2023-05-24T00:33:04.052Z,8.68
2023-05-24T00:35:36.369Z,6.93
2023-05-24T00:38:06.100Z,7.07
2023-05-24T00:40:35.851Z,6.43
2023-05-24T00:43:05.606Z,6.20
2023-05-24T00:45:35.364Z,5.90
2023-05-24T00:48:05.795Z,5.72
2023-05-24T00:50:38.197Z,5.63
2023-05-24T00:53:09.167Z,5.90
2023-05-24T00:55:39.148Z,5.10
2023-05-24T00:58:08.880Z,4.30
2023-05-24T01:00:39.145Z,4.72
2023-05-24T01:03:09.084Z,4.93
2023-05-24T01:05:42.426Z,4.30
2023-05-24T01:08:16.754Z,4.13
2023-05-24T01:10:52.600Z,4.75
2023-05-24T01:13:27.163Z,4.18
2023-05-24T01:16:01.726Z,4.20
2023-05-24T01:18:34.881Z,3.00
2023-05-24T01:21:16.151Z,3.08
2023-05-24T01:23:50.296Z,2.92
2023-05-24T01:26:27.686Z,2.70
2023-05-24T01:29:00.213Z,2.78
2023-05-24T01:31:30.069Z,2.15
2023-05-24T01:33:59.952Z,1.88
2023-05-24T01:36:29.736Z,1.50
2023-05-24T01:38:59.488Z,1.27
2023-05-24T01:41:35.982Z,1.17
2023-05-24T01:44:12.695Z,1.15
2023-05-24T01:46:42.516Z,1.40
2023-05-24T01:49:17.740Z,1.40
2023-05-24T01:51:51.659Z,1.30
2023-05-24T01:54:24.078Z,1.05
2023-05-24T01:56:55.677Z,1.30
2023-05-24T01:59:29.280Z,1.27
2023-05-24T02:01:59.509Z,1.15
2023-05-24T02:04:29.799Z,1.42
2023-05-24T02:06:59.611Z,1.25
2023-05-24T02:09:29.343Z,1.60
2023-05-24T02:11:59.070Z,1.60
2023-05-24T02:14:31.852Z,1.10
2023-05-24T02:17:03.281Z,1.90
2023-05-24T02:19:34.824Z,1.10
2023-05-24T02:22:04.779Z,1.42
2023-05-24T02:24:34.525Z,1.20
2023-05-24T02:27:04.348Z,1.30
2023-05-24T02:29:36.862Z,1.58
2023-05-24T02:32:06.686Z,1.35
2023-05-24T02:34:36.536Z,1.52
2023-05-24T02:37:06.329Z,1.77
2023-05-24T02:39:36.569Z,1.60
2023-05-24T02:42:06.431Z,1.55
2023-05-24T02:44:38.839Z,1.30
2023-05-24T02:47:08.844Z,1.58
2023-05-24T02:49:38.662Z,1.48
2023-05-24T02:52:08.827Z,1.50
2023-05-24T02:54:38.690Z,1.63
2023-05-24T02:57:08.853Z,1.38
2023-05-24T02:59:41.244Z,2.20
2023-05-24T03:02:13.901Z,1.50
2023-05-24T03:04:44.123Z,1.73
2023-05-24T03:07:15.193Z,1.77
2023-05-24T03:09:45.767Z,1.40
2023-05-24T03:12:15.590Z,1.88
2023-05-24T03:14:48.333Z,1.23
2023-05-24T03:17:18.665Z,1.70
2023-05-24T03:19:48.439Z,1.83
2023-05-24T03:22:18.662Z,2.05
2023-05-24T03:24:48.994Z,2.10
2023-05-24T03:27:19.467Z,1.52
2023-05-24T03:29:51.843Z,1.73
2023-05-24T03:32:25.197Z,2.03
2023-05-24T03:34:57.004Z,1.58
2023-05-24T03:37:26.813Z,1.85
2023-05-24T03:39:56.778Z,2.42
2023-05-24T03:42:51.905Z,2.22
2023-05-24T03:45:35.011Z,1.92
2023-05-24T03:48:08.226Z,2.15
2023-05-24T03:50:38.015Z,2.97
2023-05-24T03:53:07.890Z,2.53
2023-05-24T03:55:37.618Z,1.75
2023-05-24T03:58:07.420Z,2.90
2023-05-24T04:00:39.940Z,2.55
2023-05-24T04:03:09.934Z,2.85
2023-05-24T04:05:39.724Z,2.60
2023-05-24T04:08:09.606Z,2.20
2023-05-24T04:10:41.115Z,2.72
2023-05-24T04:13:14.106Z,2.88
2023-05-24T04:15:46.487Z,2.40
2023-05-24T04:18:16.332Z,2.55
2023-05-24T04:20:46.267Z,2.55
2023-05-24T04:23:16.065Z,2.85
2023-05-24T04:25:46.977Z,3.05
2023-05-24T04:28:16.748Z,2.65
2023-05-24T04:30:51.000Z,2.80
2023-05-24T04:33:21.385Z,2.58
2023-05-24T04:35:52.854Z,3.05
2023-05-24T04:38:22.742Z,2.78
2023-05-24T04:40:52.460Z,2.58
2023-05-24T04:43:22.647Z,2.58
2023-05-24T04:45:55.053Z,2.65
2023-05-24T04:48:24.999Z,2.40
2023-05-24T04:50:55.077Z,2.47
2023-05-24T04:53:24.980Z,2.88
2023-05-24T04:55:54.728Z,2.88
2023-05-24T04:58:24.580Z,2.75
2023-05-24T05:00:56.929Z,2.33
2023-05-24T05:03:26.764Z,2.42
2023-05-24T05:05:56.645Z,2.33
2023-05-24T05:08:26.382Z,2.88
2023-05-24T05:10:56.862Z,2.70
2023-05-24T05:13:26.660Z,2.72
2023-05-24T05:15:58.973Z,2.42
2023-05-24T05:18:28.727Z,2.60
2023-05-24T05:20:58.581Z,2.60
2023-05-24T05:23:28.357Z,2.22
2023-05-24T05:25:58.072Z,2.30
2023-05-24T05:28:27.843Z,1.83
2023-05-24T05:31:00.140Z,2.25
2023-05-24T05:33:29.964Z,2.08
2023-05-24T05:35:59.919Z,2.65
2023-05-24T05:38:29.712Z,2.78
2023-05-24T05:40:59.435Z,2.17
2023-05-24T05:43:29.315Z,3.00
2023-05-24T05:46:01.730Z,2.35
2023-05-24T05:48:31.516Z,2.75
2023-05-24T05:51:01.251Z,2.20
2023-05-24T05:53:31.063Z,2.95
2023-05-24T05:56:00.796Z,2.38
2023-05-24T05:58:30.541Z,2.70
2023-05-24T06:01:02.916Z,2.33
2023-05-24T06:03:32.746Z,2.60
2023-05-24T06:06:02.574Z,2.25
2023-05-24T06:08:35.363Z,2.72
2023-05-24T06:11:05.404Z,3.10
2023-05-24T06:13:35.231Z,3.08
2023-05-24T06:16:08.741Z,3.42
2023-05-24T06:18:38.812Z,3.15
2023-05-24T06:21:10.723Z,3.13
2023-05-24T06:23:40.801Z,2.72
2023-05-24T06:26:11.579Z,3.55
2023-05-24T06:28:41.425Z,3.28
2023-05-24T06:31:13.777Z,3.30
2023-05-24T06:33:52.506Z,3.75
2023-05-24T06:36:26.591Z,3.60
2023-05-24T06:38:56.340Z,3.13
2023-05-24T06:41:27.319Z,4.68
2023-05-24T06:43:57.051Z,4.60
2023-05-24T06:46:29.540Z,5.63
2023-05-24T06:48:59.418Z,4.72
2023-05-24T06:51:29.255Z,4.00
2023-05-24T06:53:59.035Z,5.10
2023-05-24T06:56:29.224Z,4.93
2023-05-24T06:58:59.072Z,5.03
2023-05-24T07:01:31.618Z,6.07
2023-05-24T07:04:01.416Z,6.10
2023-05-24T07:06:32.863Z,5.63
2023-05-24T07:09:02.551Z,6.13
2023-05-24T07:11:32.329Z,6.38
2023-05-24T07:14:02.061Z,6.30
2023-05-24T07:16:34.455Z,6.82
2023-05-24T07:19:05.084Z,7.15
2023-05-24T07:21:34.934Z,7.28
2023-05-24T07:24:05.175Z,6.70
2023-05-24T07:26:34.907Z,5.65
2023-05-24T07:29:04.641Z,7.22
2023-05-24T07:31:37.204Z,6.97
2023-05-24T07:34:06.921Z,5.82
2023-05-24T07:36:37.163Z,5.60
2023-05-24T07:39:07.106Z,5.75
2023-05-24T07:41:36.845Z,5.95
2023-05-24T07:44:06.653Z,5.80
2023-05-24T07:46:39.018Z,7.00
2023-05-24T07:49:09.031Z,6.00
2023-05-24T07:51:39.204Z,6.28
2023-05-24T07:54:08.954Z,7.20
2023-05-24T07:56:38.678Z,6.60
2023-05-24T07:59:08.496Z,6.95
2023-05-24T08:01:40.961Z,7.90
2023-05-24T08:04:11.915Z,6.55
2023-05-24T08:06:41.976Z,7.30
2023-05-24T08:09:12.801Z,8.32
2023-05-24T08:11:42.522Z,6.38
2023-05-24T08:14:12.234Z,8.02
2023-05-24T08:16:44.673Z,7.15
2023-05-24T08:19:14.429Z,8.65
2023-05-24T08:21:44.972Z,7.00
2023-05-24T08:24:14.717Z,7.93
2023-05-24T08:26:45.444Z,7.80
2023-05-24T08:29:17.787Z,7.57
2023-05-24T08:31:50.186Z,6.85
2023-05-24T08:34:20.166Z,7.68
2023-05-24T08:36:50.261Z,6.63
2023-05-24T08:39:19.967Z,6.03
2023-05-24T08:42:07.218Z,6.68
2023-05-24T08:44:41.471Z,6.60
2023-05-24T08:47:13.965Z,7.45
2023-05-24T08:49:44.089Z,5.78
2023-05-24T08:52:15.910Z,5.75
2023-05-24T08:54:46.256Z,6.88
2023-05-24T08:57:16.892Z,6.90
2023-05-24T08:59:46.663Z,7.13
2023-05-24T09:02:19.461Z,8.35
2023-05-24T09:04:50.144Z,7.15
2023-05-24T09:07:21.074Z,7.93
2023-05-24T09:09:53.549Z,7.07
2023-05-24T09:12:36.653Z,7.45
2023-05-24T09:15:09.319Z,6.93
2023-05-24T09:17:41.926Z,6.55
2023-05-24T09:20:12.398Z,7.97
2023-05-24T09:22:44.297Z,7.72
2023-05-24T09:25:16.360Z,8.77
2023-05-24T09:27:53.452Z,7.65
2023-05-24T09:30:24.087Z,7.72
2023-05-24T09:33:05.707Z,7.88
2023-05-24T09:35:37.212Z,7.55
2023-05-24T09:38:06.932Z,8.20
2023-05-24T09:40:36.695Z,7.35
2023-05-24T09:43:07.781Z,7.82
2023-05-24T09:45:41.590Z,8.00
2023-05-24T09:48:17.518Z,6.78
2023-05-24T09:50:48.544Z,7.50
2023-05-24T09:53:20.073Z,7.15
2023-05-24T09:55:49.867Z,6.90
2023-05-24T09:58:20.009Z,7.25
2023-05-24T10:00:50.616Z,8.38
2023-05-24T10:03:23.110Z,7.47
2023-05-24T10:05:54.496Z,7.35
2023-05-24T10:08:24.499Z,6.15
2023-05-24T10:10:54.264Z,7.28
2023-05-24T10:13:26.949Z,5.85
2023-05-24T10:15:56.686Z,6.82
2023-05-24T10:18:28.989Z,7.88
2023-05-24T10:21:00.036Z,7.22
2023-05-24T10:23:33.241Z,7.65
2023-05-24T10:26:06.781Z,6.35
2023-05-24T10:28:37.543Z,7.18
2023-05-24T10:31:10.960Z,7.80
2023-05-24T10:33:43.585Z,6.13
2023-05-24T10:36:14.848Z,5.63
2023-05-24T10:38:44.799Z,6.40
2023-05-24T10:41:14.659Z,6.45
2023-05-24T10:44:00.972Z,6.40
2023-05-24T10:46:38.558Z,5.85
2023-05-24T10:49:11.608Z,7.30
2023-05-24T10:51:42.050Z,7.63
2023-05-24T10:54:19.382Z,6.85
2023-05-24T10:56:50.043Z,5.95
2023-05-24T10:59:35.281Z,5.57
2023-05-24T11:02:06.305Z,6.25
2023-05-24T11:04:40.879Z,6.45
2023-05-24T11:07:12.357Z,6.65
2023-05-24T11:09:46.943Z,6.10
2023-05-24T11:12:18.246Z,5.22
2023-05-24T11:14:50.737Z,6.85
2023-05-24T11:17:21.939Z,5.65
2023-05-24T11:19:56.805Z,6.20
2023-05-24T11:22:27.226Z,5.80
2023-05-24T11:24:58.089Z,5.25
2023-05-24T11:27:28.359Z,6.20
2023-05-24T11:29:58.146Z,6.90
2023-05-24T11:32:27.868Z,5.93
2023-05-24T11:35:00.401Z,5.63
2023-05-24T11:37:45.201Z,5.07
2023-05-24T11:40:17.573Z,5.97
2023-05-24T11:42:47.361Z,5.63
2023-05-24T11:45:17.695Z,5.88
2023-05-24T11:47:47.577Z,5.53
2023-05-24T11:50:28.468Z,5.32
2023-05-24T11:53:04.779Z,5.80
2023-05-24T11:55:35.228Z,5.10
2023-05-24T11:58:09.265Z,5.38
2023-05-24T12:00:39.008Z,5.70
2023-05-24T12:03:09.673Z,6.18
2023-05-24T12:05:42.680Z,6.38
2023-05-24T12:08:12.953Z,6.60
2023-05-24T12:10:43.362Z,5.57
2023-05-24T12:13:22.674Z,5.45
2023-05-24T12:18:26.345Z,5.47
2023-05-24T12:20:58.894Z,7.60
2023-05-24T12:23:32.201Z,5.90
2023-05-24T12:26:02.732Z,6.70
2023-05-24T12:28:36.376Z,5.55
2023-05-24T12:31:06.296Z,6.38
2023-05-24T12:33:36.063Z,5.68
2023-05-24T12:36:08.510Z,6.45
2023-05-24T12:38:38.237Z,6.07
2023-05-24T12:41:13.435Z,6.95
2023-05-24T12:43:44.977Z,6.75
2023-05-24T12:46:14.743Z,6.38
2023-05-24T12:48:44.471Z,6.45
2023-05-24T12:51:16.780Z,6.80
2023-05-24T12:53:46.729Z,6.10
2023-05-24T12:56:16.410Z,5.72
2023-05-24T12:58:46.157Z,5.85
2023-05-24T13:01:15.920Z,5.50
2023-05-24T13:03:46.456Z,5.68
2023-05-24T13:06:18.800Z,5.82
2023-05-24T13:08:48.496Z,5.88
2023-05-24T13:11:18.208Z,6.13
2023-05-24T13:13:48.037Z,5.95
2023-05-24T13:16:17.782Z,6.35
2023-05-24T13:18:47.516Z,5.88
2023-05-24T13:21:19.880Z,5.25
2023-05-24T13:23:49.602Z,5.75
2023-05-24T13:26:19.361Z,5.75
2023-05-24T13:29:08.038Z,5.35
2023-05-24T13:31:39.114Z,6.22
2023-05-24T13:34:09.322Z,5.68
2023-05-24T13:36:42.252Z,6.32
2023-05-24T13:39:16.245Z,5.80
2023-05-24T13:41:46.534Z,5.20
2023-05-24T13:44:16.838Z,6.10
2023-05-24T13:46:47.530Z,5.28
2023-05-24T13:49:17.450Z,5.82
2023-05-24T13:51:49.950Z,5.32
2023-05-24T13:54:19.694Z,4.85
2023-05-24T13:56:49.885Z,5.32
2023-05-24T13:59:20.162Z,5.63
2023-05-24T14:01:50.155Z,5.68
2023-05-24T14:04:19.957Z,5.25
2023-05-24T14:06:52.584Z,5.10
2023-05-24T14:09:22.431Z,5.00
2023-05-24T14:11:52.202Z,5.22
2023-05-24T14:14:58.497Z,5.40
2023-05-24T14:17:11.853Z,5.00
2023-05-24T14:19:41.588Z,5.30
2023-05-24T14:22:13.910Z,4.60
2023-05-24T14:24:44.854Z,5.63
2023-05-24T14:27:14.583Z,5.63
2023-05-24T14:29:44.313Z,5.43
2023-05-24T14:32:14.151Z,4.38
2023-05-24T14:34:43.968Z,5.35
2023-05-24T14:37:18.441Z,4.85
2023-05-24T14:39:48.160Z,4.90
2023-05-24T14:42:17.920Z,5.07
2023-05-24T14:44:47.645Z,4.85
2023-05-24T14:47:17.349Z,4.70
2023-05-24T14:49:47.066Z,5.75
2023-05-24T14:52:19.396Z,5.13
2023-05-24T14:54:49.077Z,5.05
2023-05-24T14:57:18.828Z,4.35
2023-05-24T14:59:48.594Z,5.07
2023-05-24T15:02:19.142Z,4.78
2023-05-24T15:04:49.290Z,4.43
2023-05-24T15:07:21.730Z,4.82
2023-05-24T15:09:51.452Z,4.32
2023-05-24T15:12:21.527Z,4.43
2023-05-24T15:14:51.242Z,5.15
2023-05-24T15:17:22.106Z,5.15
2023-05-24T15:19:51.999Z,4.68
2023-05-24T15:22:24.416Z,5.18
2023-05-24T15:24:54.148Z,5.15
2023-05-24T15:27:23.910Z,4.78
2023-05-24T15:29:59.059Z,4.05
2023-05-24T15:32:29.009Z,4.30
2023-05-24T15:35:00.634Z,5.22
2023-05-24T15:37:32.986Z,4.95
2023-05-24T15:40:02.709Z,4.30
2023-05-24T15:42:32.435Z,4.40
2023-05-24T15:45:02.171Z,4.68
2023-05-24T15:47:36.579Z,4.93
2023-05-24T15:50:07.049Z,4.47
2023-05-24T15:52:39.432Z,4.70
2023-05-24T15:55:09.922Z,4.38
2023-05-24T15:57:39.675Z,7.32
2023-05-24T16:00:10.699Z,5.57
2023-05-24T16:02:43.432Z,4.38
2023-05-24T16:05:13.309Z,7.80
2023-05-24T16:07:45.614Z,10.95
2023-05-24T16:10:15.353Z,5.13
2023-05-24T16:12:45.075Z,6.97
2023-05-24T16:15:15.128Z,4.05
2023-05-24T16:17:44.937Z,4.68
2023-05-24T16:20:14.783Z,4.70
2023-05-24T16:22:53.125Z,4.30
2023-05-24T16:25:22.893Z,5.65
2023-05-24T16:27:52.858Z,4.32
2023-05-24T16:30:22.592Z,4.10
2023-05-24T16:32:52.339Z,4.68
2023-05-24T16:35:22.132Z,5.25
2023-05-24T16:37:56.237Z,5.53
2023-05-24T16:40:26.061Z,4.78
2023-05-24T16:42:55.843Z,4.80
2023-05-24T16:45:25.625Z,4.53
2023-05-24T16:47:55.387Z,4.13
2023-05-24T16:50:25.127Z,12.93
2023-05-24T16:52:57.438Z,26.42
2023-05-24T16:55:27.142Z,51.13
2023-05-24T16:57:57.117Z,29.45
2023-05-24T17:00:27.119Z,8.40
2023-05-24T17:02:59.521Z,18.02
2023-05-24T17:05:29.412Z,9.95
2023-05-24T17:08:01.804Z,7.47
2023-05-24T17:10:31.514Z,7.90
2023-05-24T17:13:01.268Z,8.35
2023-05-24T17:15:31.008Z,13.75
2023-05-24T17:18:00.752Z,31.60
2023-05-24T17:20:30.592Z,30.15
2023-05-24T17:23:02.979Z,11.23
2023-05-24T17:25:32.714Z,9.13
2023-05-24T17:28:02.437Z,5.68
2023-05-24T17:30:33.596Z,8.43
2023-05-24T17:33:03.347Z,11.88
2023-05-24T17:35:33.111Z,18.08
2023-05-24T17:38:05.527Z,13.90
2023-05-24T17:40:35.251Z,4.53
2023-05-24T17:43:06.508Z,4.18
2023-05-24T17:45:36.395Z,4.10
2023-05-24T17:48:06.507Z,4.20
2023-05-24T17:50:36.508Z,4.35
2023-05-24T17:53:18.974Z,4.72
2023-05-24T17:55:58.581Z,4.47
2023-05-24T17:58:28.850Z,4.75
2023-05-24T18:00:58.628Z,4.22
2023-05-24T18:03:28.367Z,4.25
2023-05-24T18:05:58.138Z,3.92
2023-05-24T18:08:30.767Z,4.43
2023-05-24T18:11:01.360Z,4.22
2023-05-24T18:13:31.426Z,5.32
2023-05-24T18:16:02.050Z,4.38
2023-05-24T18:18:31.863Z,4.90
2023-05-24T18:21:01.625Z,4.75
2023-05-24T18:23:37.784Z,4.07
2023-05-24T18:26:09.404Z,4.22
2023-05-24T18:28:39.809Z,4.13
2023-05-24T18:31:10.648Z,4.55
2023-05-24T18:33:40.670Z,4.70
2023-05-24T18:36:10.953Z,5.28
2023-05-24T18:38:43.281Z,4.20
2023-05-24T18:41:13.000Z,4.53
2023-05-24T18:43:43.269Z,4.60
2023-05-24T18:46:15.254Z,4.18
2023-05-24T18:48:45.127Z,5.10
2023-05-24T18:51:14.930Z,6.03
2023-05-24T18:53:49.039Z,6.93
2023-05-24T18:56:18.809Z,6.43
2023-05-24T18:58:50.466Z,6.97
2023-05-24T19:01:20.612Z,8.68
2023-05-24T19:03:50.560Z,7.45
2023-05-24T19:06:20.289Z,7.22
2023-05-24T19:08:52.589Z,7.85
2023-05-24T19:11:23.285Z,9.70
2023-05-24T19:13:53.017Z,9.63
2023-05-24T19:16:22.798Z,12.85
2023-05-24T19:18:52.549Z,14.57
2023-05-24T19:21:24.181Z,10.98
2023-05-24T19:23:56.543Z,15.57
2023-05-24T19:26:26.270Z,11.43
2023-05-24T19:28:55.988Z,7.50
2023-05-24T19:31:28.129Z,6.55
2023-05-24T19:34:01.000Z,6.82
2023-05-24T19:36:33.126Z,6.95
2023-05-24T19:39:05.531Z,6.53
2023-05-24T19:41:35.291Z,6.35
2023-05-24T19:44:05.049Z,12.00
2023-05-24T19:46:34.898Z,9.57
2023-05-24T19:49:04.778Z,8.43
2023-05-24T19:51:34.878Z,8.82
2023-05-24T19:54:09.435Z,7.07
2023-05-24T19:56:39.133Z,8.35
2023-05-24T19:59:08.852Z,7.50
2023-05-24T20:01:38.800Z,7.85
2023-05-24T20:04:08.684Z,7.88
2023-05-24T20:06:38.885Z,8.88
2023-05-24T20:09:11.197Z,6.70
2023-05-24T20:11:41.362Z,6.57
2023-05-24T20:14:11.094Z,6.68
2023-05-24T20:16:41.106Z,7.18
2023-05-24T20:19:12.066Z,6.43
2023-05-24T20:21:41.833Z,7.15
2023-05-24T20:24:14.127Z,7.82
2023-05-24T20:26:43.847Z,7.15
2023-05-24T20:29:13.581Z,6.63
2023-05-24T20:31:43.450Z,7.40
2023-05-24T20:34:13.494Z,6.50
2023-05-24T20:36:44.058Z,6.72
2023-05-24T20:39:16.459Z,6.97
2023-05-24T20:41:46.171Z,5.60
2023-05-24T20:44:16.107Z,6.45
2023-05-24T20:46:45.881Z,6.65
2023-05-24T20:49:15.728Z,6.03
2023-05-24T20:51:45.416Z,6.85
2023-05-24T20:54:17.732Z,6.68
2023-05-24T20:56:47.480Z,5.88
2023-05-24T20:59:17.227Z,6.80
2023-05-24T21:01:47.127Z,6.40
2023-05-24T21:04:17.375Z,6.30
2023-05-24T21:06:47.085Z,5.93
2023-05-24T21:09:19.402Z,5.97
2023-05-24T21:11:49.297Z,5.25
2023-05-24T21:14:19.032Z,6.28
2023-05-24T21:16:48.831Z,6.75
2023-05-24T21:19:18.615Z,6.13
2023-05-24T21:21:48.289Z,6.35
2023-05-24T21:24:20.577Z,5.95
2023-05-24T21:26:50.271Z,6.13
2023-05-24T21:29:19.962Z,6.32
2023-05-24T21:31:49.675Z,5.18
2023-05-24T21:34:19.389Z,7.00
2023-05-24T21:36:49.110Z,6.55
2023-05-24T21:39:21.650Z,6.80
2023-05-24T21:41:51.401Z,7.13
2023-05-24T21:44:21.255Z,6.70
2023-05-24T21:46:51.000Z,6.28
2023-05-24T21:49:21.639Z,6.63
2023-05-24T21:51:51.506Z,6.60
2023-05-24T21:54:23.846Z,6.47
2023-05-24T21:56:53.595Z,5.60
2023-05-24T21:59:23.993Z,5.63
2023-05-24T22:01:54.195Z,6.00
2023-05-24T22:04:24.050Z,6.05
2023-05-24T22:06:53.800Z,5.65
2023-05-24T22:09:26.094Z,6.22
2023-05-24T22:11:55.809Z,5.85
2023-05-24T22:14:25.519Z,5.80
2023-05-24T22:16:55.288Z,5.78
2023-05-24T22:19:38.987Z,5.85
2023-05-24T22:22:10.073Z,5.70
2023-05-24T22:24:42.423Z,5.10
2023-05-24T22:27:13.887Z,4.97
2023-05-24T22:29:43.717Z,5.53
2023-05-24T22:32:13.564Z,5.07
2023-05-24T22:34:43.433Z,5.57
2023-05-24T22:37:13.173Z,5.53
2023-05-24T22:39:45.616Z,5.10
2023-05-24T22:42:15.327Z,7.03
2023-05-24T22:44:46.586Z,4.68
2023-05-24T22:47:17.207Z,6.15
2023-05-24T22:49:46.988Z,5.93
2023-05-24T22:52:17.386Z,5.35
2023-05-24T22:54:49.720Z,5.85
2023-05-24T22:57:21.784Z,5.15
2023-05-24T22:59:51.699Z,5.45
2023-05-24T23:02:21.507Z,5.68
2023-05-24T23:04:51.253Z,5.53
2023-05-24T23:07:21.871Z,6.07
2023-05-24T23:09:54.936Z,6.03
2023-05-24T23:12:24.653Z,6.50
2023-05-24T23:14:54.368Z,5.55
2023-05-24T23:17:24.085Z,6.70
2023-05-24T23:19:53.873Z,6.60
2023-05-24T23:22:24.108Z,5.88
2023-05-24T23:24:56.676Z,6.40
2023-05-24T23:27:26.376Z,6.35
2023-05-24T23:29:56.148Z,6.85
2023-05-24T23:32:26.047Z,7.00
2023-05-24T23:34:56.079Z,7.15
2023-05-24T23:37:25.802Z,6.97
2023-05-24T23:40:02.472Z,7.25
2023-05-24T23:42:32.244Z,6.45
2023-05-24T23:45:02.489Z,6.28
2023-05-24T23:47:32.260Z,6.30
2023-05-24T23:50:02.059Z,6.50
2023-05-24T23:52:31.784Z,6.22
2023-05-24T23:55:04.275Z,6.03
2023-05-24T23:57:34.029Z,6.15
